createdAt,value
2024-02-24T00:00:37.525Z,-2.16
2024-02-24T00:03:04.508Z,-2.21
2024-02-24T00:05:31.013Z,-2.22
2024-02-24T00:07:57.388Z,-2.15
2024-02-24T00:10:24.093Z,-2.08
2024-02-24T00:12:50.860Z,-2.01
2024-02-24T00:15:17.514Z,-1.98
2024-02-24T00:17:44.394Z,-1.97
2024-02-24T00:20:12.644Z,-1.98
2024-02-24T00:22:39.413Z,-2.13
2024-02-24T00:25:06.415Z,-2.13
2024-02-24T00:27:32.838Z,-2.12
2024-02-24T00:29:59.261Z,-2.18
2024-02-24T00:32:26.004Z,-2.22
2024-02-24T00:34:52.455Z,-2.26
2024-02-24T00:37:19.200Z,-2.24
2024-02-24T00:39:46.151Z,-2.27
2024-02-24T00:42:12.913Z,-2.30
2024-02-24T00:44:39.526Z,-2.27
2024-02-24T00:47:06.378Z,-2.35
2024-02-24T00:49:33.087Z,-2.31
2024-02-24T00:51:59.538Z,-2.37
2024-02-24T00:54:26.165Z,-2.39
2024-02-24T00:56:52.565Z,-2.36
2024-02-24T00:59:19.115Z,-2.41
2024-02-24T01:01:45.638Z,-2.39
2024-02-24T01:04:12.160Z,-2.40
2024-02-24T01:06:38.825Z,-2.53
2024-02-24T01:09:05.188Z,-2.65
2024-02-24T01:14:00.521Z,-2.59
2024-02-24T01:16:27.276Z,-2.57
2024-02-24T01:18:54.015Z,-2.57
2024-02-24T01:21:20.473Z,-2.54
2024-02-24T01:23:47.272Z,-2.46
2024-02-24T01:26:13.809Z,-2.45
2024-02-24T01:28:40.500Z,-2.52
2024-02-24T01:31:06.972Z,-2.49
2024-02-24T01:33:33.732Z,-2.56
2024-02-24T01:36:00.145Z,-2.63
2024-02-24T01:38:26.576Z,-2.69
2024-02-24T01:40:53.308Z,-2.66
2024-02-24T01:43:24.625Z,-2.58
2024-02-24T01:45:53.035Z,-2.64
2024-02-24T01:48:19.611Z,-2.67
2024-02-24T01:50:50.800Z,-2.65
2024-02-24T01:53:18.665Z,-2.67
2024-02-24T01:55:45.870Z,-2.73
2024-02-24T01:58:14.055Z,-2.77
2024-02-24T02:00:41.446Z,-2.74
2024-02-24T02:03:08.836Z,-2.67
2024-02-24T02:05:35.795Z,-2.59
2024-02-24T02:08:03.024Z,-2.60
2024-02-24T02:10:48.950Z,-2.62
2024-02-24T02:13:16.044Z,-2.67
2024-02-24T02:15:42.904Z,-2.68
2024-02-24T02:18:09.806Z,-2.71
2024-02-24T02:20:36.349Z,-2.76
2024-02-24T02:23:03.630Z,-2.74
2024-02-24T02:25:30.230Z,-2.70
2024-02-24T02:27:56.665Z,-2.65
2024-02-24T02:30:23.328Z,-2.69
2024-02-24T02:32:50.013Z,-2.71
2024-02-24T02:35:16.968Z,-2.78
2024-02-24T02:37:43.653Z,-2.74
2024-02-24T02:40:10.341Z,-2.77
2024-02-24T02:42:37.124Z,-2.83
2024-02-24T02:45:04.454Z,-2.87
2024-02-24T02:47:31.362Z,-2.90
2024-02-24T02:49:57.871Z,-2.96
2024-02-24T02:52:24.617Z,-2.90
2024-02-24T02:54:51.227Z,-2.88
2024-02-24T02:57:18.240Z,-2.82
2024-02-24T02:59:44.946Z,-2.85
2024-02-24T03:02:11.570Z,-2.60
2024-02-24T03:04:38.812Z,-2.40
2024-02-24T03:07:05.221Z,-2.31
2024-02-24T03:09:31.606Z,-2.12
2024-02-24T03:11:58.385Z,-1.94
2024-02-24T03:14:24.931Z,-1.84
2024-02-24T03:16:51.802Z,-1.96
2024-02-24T03:19:18.267Z,-2.16
2024-02-24T03:21:44.955Z,-2.30
2024-02-24T03:24:11.487Z,-2.40
2024-02-24T03:26:40.231Z,-2.49
2024-02-24T03:29:07.078Z,-2.48
2024-02-24T03:31:33.537Z,-2.48
2024-02-24T03:34:00.331Z,-2.59
2024-02-24T03:36:27.493Z,-2.64
2024-02-24T03:38:54.133Z,-2.70
2024-02-24T03:41:20.557Z,-2.70
2024-02-24T03:43:47.019Z,-2.66
2024-02-24T03:46:13.691Z,-2.65
2024-02-24T03:48:40.150Z,-2.66
2024-02-24T03:51:06.931Z,-2.68
2024-02-24T03:53:33.433Z,-2.70
2024-02-24T03:56:00.126Z,-2.67
2024-02-24T03:58:26.552Z,-2.51
2024-02-24T04:00:53.144Z,-2.23
2024-02-24T04:03:20.287Z,-2.00
2024-02-24T04:05:47.973Z,-1.75
2024-02-24T04:08:15.188Z,-1.54
2024-02-24T04:10:47.704Z,-1.69
2024-02-24T04:13:14.628Z,-1.85
2024-02-24T04:15:48.054Z,-1.85
2024-02-24T04:18:16.459Z,-1.95
2024-02-24T04:20:45.931Z,-1.99
2024-02-24T04:23:12.705Z,-2.22
2024-02-24T04:25:39.463Z,-2.38
2024-02-24T04:28:06.407Z,-2.33
2024-02-24T04:30:33.072Z,-1.98
2024-02-24T04:32:59.588Z,-1.78
2024-02-24T04:35:26.289Z,-1.51
2024-02-24T04:37:52.751Z,-1.32
2024-02-24T04:40:20.940Z,-1.31
2024-02-24T04:42:47.732Z,-1.26
2024-02-24T04:45:14.221Z,-1.29
2024-02-24T04:47:40.960Z,-1.20
2024-02-24T04:50:08.281Z,-1.26
2024-02-24T04:52:35.057Z,-1.25
2024-02-24T04:55:01.664Z,-1.33
2024-02-24T04:57:29.598Z,-1.35
2024-02-24T04:59:56.241Z,-1.69
2024-02-24T05:02:23.481Z,-2.01
2024-02-24T05:04:50.697Z,-2.04
2024-02-24T05:07:17.123Z,-2.13
2024-02-24T05:09:43.722Z,-2.26
2024-02-24T05:12:10.259Z,-2.35
2024-02-24T05:14:38.806Z,-2.47
2024-02-24T05:17:08.979Z,-2.53
2024-02-24T05:19:35.747Z,-2.57
2024-02-24T05:22:02.459Z,-2.50
2024-02-24T05:24:28.886Z,-2.70
2024-02-24T05:26:55.585Z,-2.82
2024-02-24T05:29:22.054Z,-2.89
2024-02-24T05:31:48.481Z,-2.90
2024-02-24T05:34:15.142Z,-2.97
2024-02-24T05:36:41.971Z,-2.97
2024-02-24T05:39:09.098Z,-2.84
2024-02-24T05:41:35.532Z,-2.71
2024-02-24T05:44:02.352Z,-2.74
2024-02-24T05:46:28.794Z,-2.78
2024-02-24T05:48:55.541Z,-2.81
2024-02-24T05:51:22.950Z,-2.89
2024-02-24T05:53:49.960Z,-2.95
2024-02-24T05:56:17.030Z,-3.00
2024-02-24T05:58:43.602Z,-2.94
2024-02-24T06:01:10.388Z,-2.89
2024-02-24T06:03:37.540Z,-2.81
2024-02-24T06:06:04.372Z,-2.79
2024-02-24T06:08:31.211Z,-2.64
2024-02-24T06:10:57.685Z,-2.48
2024-02-24T06:13:24.474Z,-2.41
2024-02-24T06:15:50.864Z,-2.25
2024-02-24T06:18:17.962Z,-2.35
2024-02-24T06:20:44.501Z,-2.09
2024-02-24T06:23:12.444Z,-2.30
2024-02-24T06:25:39.042Z,-2.33
2024-02-24T06:28:07.447Z,-2.06
2024-02-24T06:30:34.077Z,-1.79
2024-02-24T06:33:00.660Z,-1.56
2024-02-24T06:35:27.491Z,-1.38
2024-02-24T06:37:53.898Z,-1.39
2024-02-24T06:40:29.454Z,-1.29
2024-02-24T06:43:03.499Z,-1.28
2024-02-24T06:45:29.976Z,-1.12
2024-02-24T06:47:56.781Z,-0.97
2024-02-24T06:50:23.344Z,-0.95
2024-02-24T06:52:50.030Z,-0.78
2024-02-24T06:55:17.010Z,-0.60
2024-02-24T06:57:46.243Z,-0.69
2024-02-24T07:00:16.150Z,-0.15
2024-02-24T07:02:42.790Z,0.46
2024-02-24T07:05:12.258Z,0.65
2024-02-24T07:07:38.778Z,0.78
2024-02-24T07:10:05.826Z,1.03
2024-02-24T07:12:34.530Z,1.19
2024-02-24T07:15:01.265Z,1.63
2024-02-24T07:17:28.676Z,1.05
2024-02-24T07:19:55.986Z,1.15
2024-02-24T07:22:22.693Z,1.08
2024-02-24T07:24:49.126Z,1.25
2024-02-24T07:27:15.913Z,1.73
2024-02-24T07:29:42.407Z,2.01
2024-02-24T07:32:09.778Z,1.78
2024-02-24T07:34:36.570Z,1.85
2024-02-24T07:37:03.232Z,1.82
2024-02-24T07:39:30.164Z,1.68
2024-02-24T07:41:56.700Z,1.41
2024-02-24T07:44:23.619Z,1.31
2024-02-24T07:46:50.160Z,1.10
2024-02-24T07:49:17.033Z,0.93
2024-02-24T07:51:44.233Z,0.81
2024-02-24T07:54:11.037Z,0.82
2024-02-24T07:56:37.791Z,0.74
2024-02-24T07:59:04.316Z,0.70
2024-02-24T08:01:30.971Z,0.70
2024-02-24T08:03:57.497Z,0.74
2024-02-24T08:06:24.202Z,0.75
2024-02-24T08:08:50.797Z,0.96
2024-02-24T08:11:17.780Z,0.96
2024-02-24T08:13:44.593Z,1.22
2024-02-24T08:16:11.083Z,1.38
2024-02-24T08:18:37.802Z,1.51
2024-02-24T08:21:08.156Z,1.41
2024-02-24T08:23:35.915Z,1.61
2024-02-24T08:26:02.941Z,1.42
2024-02-24T08:28:29.435Z,1.43
2024-02-24T08:30:55.892Z,1.35
2024-02-24T08:33:23.971Z,1.67
2024-02-24T08:35:51.843Z,1.89
2024-02-24T08:38:18.716Z,1.85
2024-02-24T08:40:46.109Z,1.98
2024-02-24T08:43:12.951Z,2.17
2024-02-24T08:45:39.558Z,2.32
2024-02-24T08:48:07.009Z,2.21
2024-02-24T08:50:33.537Z,2.25
2024-02-24T08:53:00.487Z,2.21
2024-02-24T08:55:26.930Z,2.21
2024-02-24T08:57:53.824Z,2.32
2024-02-24T09:00:20.424Z,2.49
2024-02-24T09:02:48.388Z,2.46
2024-02-24T09:05:15.545Z,2.74
2024-02-24T09:07:42.068Z,2.81
2024-02-24T09:10:09.638Z,2.93
2024-02-24T09:12:36.182Z,3.11
2024-02-24T09:15:03.122Z,3.19
2024-02-24T09:17:30.165Z,3.95
2024-02-24T09:19:56.636Z,4.69
2024-02-24T09:22:23.503Z,5.49
2024-02-24T09:24:49.909Z,5.32
2024-02-24T09:27:16.628Z,5.62
2024-02-24T09:29:43.089Z,5.97
2024-02-24T09:32:09.600Z,5.95
2024-02-24T09:34:36.072Z,6.38
2024-02-24T09:37:04.274Z,5.93
2024-02-24T09:39:31.015Z,5.50
2024-02-24T09:42:01.459Z,6.18
2024-02-24T09:44:32.583Z,6.75
2024-02-24T09:47:00.781Z,6.31
2024-02-24T09:49:31.905Z,6.79
2024-02-24T09:51:59.391Z,6.62
2024-02-24T09:54:26.882Z,6.49
2024-02-24T09:56:55.096Z,6.66
2024-02-24T09:59:22.605Z,6.27
2024-02-24T10:01:49.427Z,7.30
2024-02-24T10:04:16.366Z,6.88
2024-02-24T10:06:43.151Z,6.33
2024-02-24T10:09:10.946Z,7.06
2024-02-24T10:11:38.213Z,7.56
2024-02-24T10:14:06.570Z,7.13
2024-02-24T10:16:37.925Z,7.27
2024-02-24T10:19:08.232Z,7.47
2024-02-24T10:21:35.304Z,7.60
2024-02-24T10:24:04.266Z,7.14
2024-02-24T10:26:30.965Z,6.70
2024-02-24T10:28:58.180Z,6.93
2024-02-24T10:31:25.045Z,7.25
2024-02-24T10:33:53.408Z,7.16
2024-02-24T10:36:20.253Z,6.90
2024-02-24T10:38:55.931Z,7.76
2024-02-24T10:41:26.767Z,7.70
2024-02-24T10:44:06.373Z,8.42
2024-02-24T10:46:44.679Z,8.95
2024-02-24T10:49:12.398Z,8.75
2024-02-24T10:51:39.556Z,9.00
2024-02-24T10:54:16.403Z,8.68
2024-02-24T10:56:43.544Z,8.02
2024-02-24T10:59:11.887Z,7.76
2024-02-24T11:01:43.483Z,8.35
2024-02-24T11:04:12.478Z,8.51
2024-02-24T11:06:49.576Z,8.28
2024-02-24T11:09:41.140Z,8.15
2024-02-24T11:12:12.615Z,7.73
2024-02-24T11:14:42.253Z,7.80
2024-02-24T11:17:10.869Z,7.71
2024-02-24T11:19:47.392Z,8.26
2024-02-24T11:22:21.394Z,8.44
2024-02-24T11:25:01.541Z,8.66
2024-02-24T11:27:41.696Z,9.17
2024-02-24T11:30:36.426Z,8.50
2024-02-24T11:33:22.991Z,8.61
2024-02-24T11:35:56.404Z,8.27
2024-02-24T11:38:25.110Z,7.97
2024-02-24T11:40:52.666Z,7.86
2024-02-24T11:43:19.855Z,8.00
2024-02-24T11:45:50.599Z,7.90
2024-02-24T11:48:19.275Z,7.90
2024-02-24T11:50:46.896Z,7.56
2024-02-24T11:53:18.677Z,7.83
2024-02-24T11:55:47.095Z,7.96
2024-02-24T11:58:14.362Z,7.99
2024-02-24T12:00:42.095Z,8.18
2024-02-24T12:03:15.565Z,7.83
2024-02-24T12:05:42.844Z,7.84
2024-02-24T12:08:13.322Z,8.19
2024-02-24T12:10:41.193Z,8.31
2024-02-24T12:13:14.004Z,8.21
2024-02-24T12:15:43.781Z,8.68
2024-02-24T12:18:10.312Z,8.52
2024-02-24T12:20:38.197Z,8.48
2024-02-24T12:23:05.999Z,8.34
2024-02-24T12:25:32.836Z,8.29
2024-02-24T12:28:00.634Z,8.54
2024-02-24T12:30:27.929Z,8.64
2024-02-24T12:32:55.019Z,8.49
2024-02-24T12:35:25.754Z,8.43
2024-02-24T12:37:53.490Z,8.61
2024-02-24T12:40:36.292Z,8.51
2024-02-24T12:43:06.588Z,8.13
2024-02-24T12:45:33.753Z,7.60
2024-02-24T12:48:00.584Z,7.50
2024-02-24T12:50:27.912Z,8.07
2024-02-24T12:52:54.712Z,8.33
2024-02-24T12:55:21.521Z,8.35
2024-02-24T12:57:47.950Z,8.86
2024-02-24T13:00:15.022Z,8.74
2024-02-24T13:02:41.858Z,8.67
2024-02-24T13:05:09.211Z,8.40
2024-02-24T13:07:35.682Z,8.28
2024-02-24T13:10:02.235Z,8.45
2024-02-24T13:12:28.860Z,8.29
2024-02-24T13:14:55.417Z,8.36
2024-02-24T13:17:22.905Z,8.36
2024-02-24T13:19:52.501Z,8.21
2024-02-24T13:22:20.229Z,8.31
2024-02-24T13:24:47.101Z,8.28
2024-02-24T13:27:13.649Z,8.60
2024-02-24T13:29:40.461Z,8.88
2024-02-24T13:32:07.413Z,9.37
2024-02-24T13:34:33.941Z,9.04
2024-02-24T13:37:00.430Z,8.97
2024-02-24T13:39:27.060Z,8.79
2024-02-24T13:41:55.223Z,8.76
2024-02-24T13:44:22.118Z,8.87
2024-02-24T13:46:49.864Z,8.90
2024-02-24T13:51:46.842Z,8.28
2024-02-24T13:54:13.413Z,8.46
2024-02-24T13:56:40.565Z,8.30
2024-02-24T13:59:07.152Z,8.25
2024-02-24T14:01:33.588Z,8.27
2024-02-24T14:04:00.386Z,7.92
2024-02-24T14:06:27.024Z,7.74
2024-02-24T14:08:54.087Z,7.64
2024-02-24T14:11:20.819Z,7.69
2024-02-24T14:13:47.569Z,7.81
2024-02-24T14:16:14.032Z,7.88
2024-02-24T14:18:40.544Z,8.01
2024-02-24T14:21:07.238Z,8.16
2024-02-24T14:23:33.721Z,8.16
2024-02-24T14:26:00.456Z,7.83
2024-02-24T14:28:26.929Z,7.87
2024-02-24T14:30:55.917Z,7.95
2024-02-24T14:33:23.587Z,7.86
2024-02-24T14:35:50.367Z,7.86
2024-02-24T14:38:17.353Z,7.96
2024-02-24T14:40:49.799Z,8.13
2024-02-24T14:43:17.167Z,8.07
2024-02-24T14:45:43.747Z,8.00
2024-02-24T14:48:11.025Z,7.79
2024-02-24T14:50:37.602Z,7.92
2024-02-24T14:53:04.665Z,7.93
2024-02-24T14:55:31.231Z,8.10
2024-02-24T14:57:58.036Z,7.80
2024-02-24T15:00:27.440Z,7.78
2024-02-24T15:05:24.764Z,7.84
2024-02-24T15:07:51.202Z,7.80
2024-02-24T15:10:17.829Z,7.79
2024-02-24T15:12:44.280Z,7.73
2024-02-24T15:15:10.900Z,7.77
2024-02-24T15:17:37.532Z,7.84
2024-02-24T15:20:04.732Z,7.82
2024-02-24T15:22:31.141Z,7.75
2024-02-24T15:24:57.600Z,7.75
2024-02-24T15:27:24.372Z,7.65
2024-02-24T15:29:50.762Z,7.75
2024-02-24T15:32:17.213Z,7.73
2024-02-24T15:34:43.716Z,7.65
2024-02-24T15:37:10.122Z,7.67
2024-02-24T15:39:36.763Z,7.60
2024-02-24T15:42:03.353Z,7.61
2024-02-24T15:44:30.060Z,7.50
2024-02-24T15:46:56.573Z,7.55
2024-02-24T15:49:24.941Z,7.55
2024-02-24T15:51:51.660Z,7.40
2024-02-24T15:54:18.072Z,7.39
2024-02-24T15:56:44.698Z,7.35
2024-02-24T15:59:11.096Z,7.34
2024-02-24T16:01:37.875Z,7.33
2024-02-24T16:04:04.488Z,7.27
2024-02-24T16:06:31.085Z,7.16
2024-02-24T16:08:59.687Z,7.20
2024-02-24T16:11:26.240Z,7.15
2024-02-24T16:13:53.000Z,7.18
2024-02-24T16:16:22.347Z,7.14
2024-02-24T16:18:49.217Z,7.22
2024-02-24T16:21:15.753Z,7.24
2024-02-24T16:23:42.279Z,7.04
2024-02-24T16:26:08.709Z,7.05
2024-02-24T16:28:35.138Z,6.91
2024-02-24T16:31:01.801Z,6.83
2024-02-24T16:33:28.484Z,6.74
2024-02-24T16:35:55.389Z,6.67
2024-02-24T16:38:22.001Z,6.62
2024-02-24T16:40:48.597Z,6.46
2024-02-24T16:43:15.208Z,6.36
2024-02-24T16:45:41.746Z,6.37
2024-02-24T16:48:08.725Z,6.14
2024-02-24T16:50:35.238Z,6.24
2024-02-24T16:53:01.981Z,6.31
2024-02-24T16:55:28.360Z,6.22
2024-02-24T16:57:54.741Z,5.98
2024-02-24T17:00:22.609Z,5.87
2024-02-24T17:02:49.999Z,5.85
2024-02-24T17:05:16.551Z,5.60
2024-02-24T17:07:43.100Z,5.52
2024-02-24T17:10:10.059Z,5.25
2024-02-24T17:12:36.634Z,4.81
2024-02-24T17:15:04.422Z,4.54
2024-02-24T17:17:31.770Z,4.40
2024-02-24T17:19:58.382Z,4.17
2024-02-24T17:22:25.140Z,3.95
2024-02-24T17:24:52.748Z,3.91
2024-02-24T17:27:20.010Z,3.77
2024-02-24T17:29:46.476Z,3.75
2024-02-24T17:32:14.116Z,3.65
2024-02-24T17:34:40.824Z,3.57
2024-02-24T17:37:07.295Z,3.59
2024-02-24T17:39:34.039Z,3.35
2024-02-24T17:42:00.634Z,3.24
2024-02-24T17:44:27.430Z,3.20
2024-02-24T17:46:53.957Z,3.14
2024-02-24T17:49:25.659Z,3.13
2024-02-24T17:51:53.190Z,3.18
2024-02-24T17:54:19.613Z,3.17
2024-02-24T17:56:46.260Z,3.17
2024-02-24T17:59:12.659Z,3.09
2024-02-24T18:01:39.090Z,2.91
2024-02-24T18:04:05.638Z,2.83
2024-02-24T18:06:32.225Z,2.81
2024-02-24T18:08:58.987Z,2.81
2024-02-24T18:11:26.138Z,2.62
2024-02-24T18:13:52.942Z,2.53
2024-02-24T18:16:19.374Z,2.52
2024-02-24T18:18:46.438Z,2.45
2024-02-24T18:21:18.321Z,2.21
2024-02-24T18:23:45.070Z,2.20
2024-02-24T18:26:12.121Z,2.19
2024-02-24T18:28:38.769Z,2.08
2024-02-24T18:31:05.434Z,2.06
2024-02-24T18:33:31.966Z,2.02
2024-02-24T18:35:58.842Z,1.96
2024-02-24T18:38:25.398Z,1.91
2024-02-24T18:40:52.607Z,1.87
2024-02-24T18:43:20.854Z,1.88
2024-02-24T18:45:47.437Z,1.85
2024-02-24T18:48:14.330Z,1.83
2024-02-24T18:50:41.062Z,1.89
2024-02-24T18:53:07.762Z,2.01
2024-02-24T18:55:35.520Z,2.18
2024-02-24T18:58:02.653Z,2.29
2024-02-24T19:00:29.313Z,2.26
2024-02-24T19:02:55.975Z,2.30
2024-02-24T19:05:22.568Z,2.32
2024-02-24T19:07:51.020Z,2.26
2024-02-24T19:10:21.622Z,2.15
2024-02-24T19:12:48.045Z,2.11
2024-02-24T19:15:15.040Z,2.10
2024-02-24T19:17:42.231Z,2.15
2024-02-24T19:20:09.267Z,2.19
2024-02-24T19:22:35.917Z,2.18
2024-02-24T19:25:02.514Z,2.14
2024-02-24T19:27:29.262Z,2.23
2024-02-24T19:29:55.884Z,2.17
2024-02-24T19:32:23.153Z,2.04
2024-02-24T19:34:52.242Z,2.06
2024-02-24T19:37:19.058Z,2.03
2024-02-24T19:39:45.758Z,2.02
2024-02-24T19:42:12.388Z,2.00
2024-02-24T19:44:39.263Z,1.95
2024-02-24T19:47:10.289Z,1.86
2024-02-24T19:49:37.994Z,1.82
2024-02-24T19:52:05.429Z,1.81
2024-02-24T19:54:31.852Z,1.66
2024-02-24T19:57:01.585Z,1.68
2024-02-24T19:59:28.016Z,1.69
2024-02-24T20:01:54.695Z,1.73
2024-02-24T20:04:21.249Z,1.80
2024-02-24T20:06:48.174Z,1.96
2024-02-24T20:09:15.238Z,2.08
2024-02-24T20:11:41.699Z,2.19
2024-02-24T20:14:08.426Z,2.20
2024-02-24T20:16:34.834Z,2.02
2024-02-24T20:19:01.674Z,2.21
2024-02-24T20:21:29.033Z,2.11
2024-02-24T20:23:55.767Z,2.07
2024-02-24T20:26:22.344Z,1.90
2024-02-24T20:28:51.625Z,1.78
2024-02-24T20:31:20.709Z,1.77
2024-02-24T20:33:53.629Z,1.60
2024-02-24T20:36:27.462Z,1.59
2024-02-24T20:38:54.460Z,1.55
2024-02-24T20:41:23.694Z,1.56
2024-02-24T20:43:52.214Z,1.56
2024-02-24T20:46:19.013Z,1.58
2024-02-24T20:48:45.977Z,1.55
2024-02-24T20:51:12.648Z,1.52
2024-02-24T20:53:39.321Z,1.45
2024-02-24T20:56:06.267Z,1.39
2024-02-24T20:58:37.390Z,1.36
2024-02-24T21:01:04.317Z,1.31
2024-02-24T21:03:31.184Z,1.30
2024-02-24T21:05:57.760Z,1.29
2024-02-24T21:08:24.489Z,1.35
2024-02-24T21:10:50.940Z,1.35
2024-02-24T21:13:19.535Z,1.34
2024-02-24T21:15:46.189Z,1.42
2024-02-24T21:18:12.760Z,1.45
2024-02-24T21:20:39.458Z,1.43
2024-02-24T21:23:06.055Z,1.38
2024-02-24T21:25:32.854Z,1.36
2024-02-24T21:27:59.263Z,1.29
2024-02-24T21:30:26.243Z,1.19
2024-02-24T21:32:54.164Z,1.17
2024-02-24T21:35:21.023Z,1.17
2024-02-24T21:37:47.647Z,1.20
2024-02-24T21:40:14.155Z,1.11
2024-02-24T21:42:40.804Z,1.05
2024-02-24T21:45:07.779Z,1.01
2024-02-24T21:47:34.446Z,0.98
2024-02-24T21:50:01.240Z,1.00
2024-02-24T21:52:27.613Z,0.95
2024-02-24T21:54:54.024Z,0.85
2024-02-24T21:57:20.403Z,0.68
2024-02-24T21:59:47.112Z,0.67
2024-02-24T22:02:13.650Z,0.81
2024-02-24T22:04:40.028Z,1.35
2024-02-24T22:07:06.801Z,1.64
2024-02-24T22:09:34.590Z,1.78
2024-02-24T22:12:01.303Z,1.88
2024-02-24T22:14:29.197Z,1.95
2024-02-24T22:16:55.868Z,1.88
2024-02-24T22:19:22.460Z,1.87
2024-02-24T22:21:50.462Z,1.82
2024-02-24T22:24:17.082Z,1.83
2024-02-24T22:26:46.906Z,1.81
2024-02-24T22:29:14.408Z,1.71
2024-02-24T22:31:42.556Z,1.62
2024-02-24T22:34:09.360Z,1.48
2024-02-24T22:36:35.817Z,1.23
2024-02-24T22:39:02.651Z,1.01
2024-02-24T22:41:29.707Z,0.92
2024-02-24T22:43:56.205Z,0.98
2024-02-24T22:46:22.643Z,1.11
2024-02-24T22:48:49.274Z,1.16
2024-02-24T22:51:16.678Z,1.10
2024-02-24T22:53:43.333Z,0.89
2024-02-24T22:56:10.075Z,0.65
2024-02-24T22:58:36.630Z,0.55
2024-02-24T23:01:03.717Z,0.73
2024-02-24T23:03:30.397Z,1.02
2024-02-24T23:05:56.898Z,1.11
2024-02-24T23:08:23.681Z,1.03
2024-02-24T23:10:50.211Z,1.06
2024-02-24T23:13:16.662Z,0.99
2024-02-24T23:15:43.066Z,0.93
2024-02-24T23:18:09.704Z,0.93
2024-02-24T23:20:36.428Z,0.77
2024-02-24T23:23:04.011Z,0.77
2024-02-24T23:25:30.828Z,0.69
2024-02-24T23:27:57.208Z,0.60
2024-02-24T23:30:23.857Z,0.46
2024-02-24T23:32:50.489Z,0.43
2024-02-24T23:35:17.045Z,0.46
2024-02-24T23:37:43.919Z,0.46
2024-02-24T23:40:11.143Z,0.47
2024-02-24T23:42:39.330Z,0.55
2024-02-24T23:45:06.402Z,0.59
2024-02-24T23:47:33.318Z,0.52
2024-02-24T23:49:59.921Z,0.44
2024-02-24T23:52:26.371Z,0.60
2024-02-24T23:54:55.644Z,0.52
2024-02-24T23:57:23.148Z,0.49
2024-02-24T23:59:49.868Z,0.41
